Noix De Coco Solo — FGF3649 — position and weather

sailwx.info

Track history (hours):
 
Tides and Currents Weather Stations Pressure Air Temp Water Temp Dewpoint Dewpoint Depression Visibility Wind Speed Wind Dir Waves Ship Positions

Noix De Coco Solo

Last reported at 2017-Nov-03 13:10 UTC. Time now 2017-Nov-25 04:18 UTC.
Position N 47°33' W 002°54'.
Warning: this ship's position is 21 days out of date.

Type: Sailing vessel. MMSI: 227763690.

Date/timePositionNaut miles runAvg speedWind from/ knotsBaromVisibWave heightAir tempDewpointWater temp
2017-Nov-03 13:10N 47°33' W 002°54'0 0.0
2017-Nov-02 14:29N 47°33' W 002°54'0 0.0
2017-Nov-02 13:59N 47°33' W 002°54'0 0.0
2017-Nov-02 13:29N 47°33' W 002°54'0 0.0
2017-Nov-02 12:56N 47°33' W 002°54'0 0.0
2017-Oct-31 12:29N 47°33' W 002°54'0 0.0
2017-Oct-31 11:59N 47°33' W 002°54'0 0.0
2017-Oct-31 11:29N 47°33' W 002°54'0 0.0
2017-Oct-31 10:58N 47°33' W 002°54'0 0.1
2017-Oct-31 10:31N 47°33' W 002°54'1 2.6
2017-Oct-31 10:00N 47°32' W 002°55'2 4.0
2017-Oct-31 09:30N 47°32' W 002°58'3 6.1
2017-Oct-31 09:01N 47°34' W 003°01'1 2.4
2017-Oct-31 08:29N 47°35' W 003°02'0 0.0
2017-Oct-31 07:59N 47°35' W 003°02'0 0.0
2017-Oct-31 07:29N 47°35' W 003°02'0 0.0
2017-Oct-31 06:59N 47°35' W 003°02'0 0.0
2017-Oct-31 06:29N 47°35' W 003°02'0 0.0
2017-Oct-31 05:59N 47°35' W 003°02'0 0.0
2017-Oct-31 05:29N 47°35' W 003°02'0 0.0
2017-Oct-31 04:59N 47°35' W 003°02'0 0.0
2017-Oct-31 04:29N 47°35' W 003°02'0 0.0
2017-Oct-31 03:59N 47°35' W 003°02'0 0.0
2017-Oct-31 03:29N 47°35' W 003°02'0 0.0
2017-Oct-31 02:59N 47°35' W 003°02'0 0.0
2017-Oct-31 02:29N 47°35' W 003°02'0 0.0
2017-Oct-31 01:59N 47°35' W 003°02'0 0.0
2017-Oct-31 01:29N 47°35' W 003°02'0 0.0
2017-Oct-31 00:59N 47°35' W 003°02'0 0.0
2017-Oct-31 00:29N 47°35' W 003°02'0 0.0
2017-Oct-30 23:59N 47°35' W 003°02'0 0.0
2017-Oct-30 23:29N 47°35' W 003°02'0 0.0
2017-Oct-30 22:59N 47°35' W 003°02'0 0.0
2017-Oct-30 22:29N 47°35' W 003°02'0 0.0
2017-Oct-30 21:59N 47°35' W 003°02'0 0.0
2017-Oct-30 21:29N 47°35' W 003°02'0 0.0
2017-Oct-30 20:59N 47°35' W 003°02'0 0.0
2017-Oct-30 20:29N 47°35' W 003°02'0 0.0
2017-Oct-30 19:59N 47°35' W 003°02'0 0.0
2017-Oct-30 19:29N 47°35' W 003°02'0 0.0
2017-Oct-30 18:59N 47°35' W 003°02'0 0.0
2017-Oct-30 18:29N 47°35' W 003°02'0 0.0
2017-Oct-30 17:56N 47°35' W 003°02'0 0.0
2017-Oct-30 17:29N 47°35' W 003°02'0 0.0
2017-Oct-30 16:59N 47°35' W 003°02'0 0.0
2017-Oct-30 16:29N 47°35' W 003°02'0 0.0
2017-Oct-30 15:59N 47°35' W 003°02'0 0.0
2017-Oct-30 15:26N 47°35' W 003°02'0 0.0
2017-Oct-30 14:59N 47°35' W 003°02'0 0.0
2017-Oct-30 14:29N 47°35' W 003°02'0 0.0
2017-Oct-30 13:29N 47°35' W 003°02'0 0.6
2017-Oct-30 13:00N 47°35' W 003°01'2 3.4
2017-Oct-30 12:30N 47°34' W 003°00'3 6.1
2017-Oct-30 12:00N 47°31' W 002°57'2 4.1
2017-Oct-30 11:30N 47°32' W 002°54'1 2.0
2017-Oct-30 10:59N 47°33' W 002°54'  
2017-Oct-27 15:00N 47°33' W 002°54'0 0.0
2017-Oct-27 14:30N 47°33' W 002°54'1 1.6
2017-Oct-27 14:00N 47°32' W 002°55'3 5.1
2017-Oct-27 13:30N 47°30' W 002°53'2 5.0
2017-Oct-27 13:00N 47°28' W 002°52'2 4.3
2017-Oct-27 12:30N 47°25' W 002°51'2 4.4
2017-Oct-27 12:00N 47°24' W 002°49'44 2.3
2017-Oct-26 16:23N 46°44' W 002°21'11 2.7
2017-Oct-26 12:26N 46°36' W 002°10'3 5.5
2017-Oct-26 11:49N 46°34' W 002°06'2 5.4
2017-Oct-26 11:30N 46°33' W 002°03'3 5.2
2017-Oct-26 11:00N 46°32' W 001°60'3 5.1
2017-Oct-26 10:30N 46°31' W 001°57'3 5.2
2017-Oct-26 10:00N 46°30' W 001°53'3 5.1
2017-Oct-26 09:30N 46°29' W 001°50'2 3.6
2017-Oct-26 09:00N 46°30' W 001°48'0 0.4
2017-Oct-26 08:29N 46°30' W 001°48'0 0.0
2017-Oct-26 07:59N 46°30' W 001°48'0 0.0
2017-Oct-26 07:29N 46°30' W 001°48'  
Track history (hours):
 
Tides and Currents Weather Stations Pressure Air Temp Water Temp Dewpoint Dewpoint Depression Visibility Wind Speed Wind Dir Waves Ship Positions

Noix De Coco Solo

Last reported at 2017-Nov-03 13:10 UTC. Time now 2017-Nov-25 04:18 UTC.
Position N 47°33' W 002°54'.
Warning: this ship's position is 21 days out of date.

Type: Sailing vessel. MMSI: 227763690.

Date/timePositionNaut miles runAvg speedWind from/ knotsBaromVisibWave heightAir tempDewpointWater temp
2017-Nov-03 13:10N 47°33' W 002°54'0 0.0
2017-Nov-02 14:29N 47°33' W 002°54'0 0.0
2017-Nov-02 13:59N 47°33' W 002°54'0 0.0
2017-Nov-02 13:29N 47°33' W 002°54'0 0.0
2017-Nov-02 12:56N 47°33' W 002°54'0 0.0
2017-Oct-31 12:29N 47°33' W 002°54'0 0.0
2017-Oct-31 11:59N 47°33' W 002°54'0 0.0
2017-Oct-31 11:29N 47°33' W 002°54'0 0.0
2017-Oct-31 10:58N 47°33' W 002°54'0 0.1
2017-Oct-31 10:31N 47°33' W 002°54'1 2.6
2017-Oct-31 10:00N 47°32' W 002°55'2 4.0
2017-Oct-31 09:30N 47°32' W 002°58'3 6.1
2017-Oct-31 09:01N 47°34' W 003°01'1 2.4
2017-Oct-31 08:29N 47°35' W 003°02'0 0.0
2017-Oct-31 07:59N 47°35' W 003°02'0 0.0
2017-Oct-31 07:29N 47°35' W 003°02'0 0.0
2017-Oct-31 06:59N 47°35' W 003°02'0 0.0
2017-Oct-31 06:29N 47°35' W 003°02'0 0.0
2017-Oct-31 05:59N 47°35' W 003°02'0 0.0
2017-Oct-31 05:29N 47°35' W 003°02'0 0.0
2017-Oct-31 04:59N 47°35' W 003°02'0 0.0
2017-Oct-31 04:29N 47°35' W 003°02'0 0.0
2017-Oct-31 03:59N 47°35' W 003°02'0 0.0
2017-Oct-31 03:29N 47°35' W 003°02'0 0.0
2017-Oct-31 02:59N 47°35' W 003°02'0 0.0
2017-Oct-31 02:29N 47°35' W 003°02'0 0.0
2017-Oct-31 01:59N 47°35' W 003°02'0 0.0
2017-Oct-31 01:29N 47°35' W 003°02'0 0.0
2017-Oct-31 00:59N 47°35' W 003°02'0 0.0
2017-Oct-31 00:29N 47°35' W 003°02'0 0.0
2017-Oct-30 23:59N 47°35' W 003°02'0 0.0
2017-Oct-30 23:29N 47°35' W 003°02'0 0.0
2017-Oct-30 22:59N 47°35' W 003°02'0 0.0
2017-Oct-30 22:29N 47°35' W 003°02'0 0.0
2017-Oct-30 21:59N 47°35' W 003°02'0 0.0
2017-Oct-30 21:29N 47°35' W 003°02'0 0.0
2017-Oct-30 20:59N 47°35' W 003°02'0 0.0
2017-Oct-30 20:29N 47°35' W 003°02'0 0.0
2017-Oct-30 19:59N 47°35' W 003°02'0 0.0
2017-Oct-30 19:29N 47°35' W 003°02'0 0.0
2017-Oct-30 18:59N 47°35' W 003°02'0 0.0
2017-Oct-30 18:29N 47°35' W 003°02'0 0.0
2017-Oct-30 17:56N 47°35' W 003°02'0 0.0
2017-Oct-30 17:29N 47°35' W 003°02'0 0.0
2017-Oct-30 16:59N 47°35' W 003°02'0 0.0
2017-Oct-30 16:29N 47°35' W 003°02'0 0.0
2017-Oct-30 15:59N 47°35' W 003°02'0 0.0
2017-Oct-30 15:26N 47°35' W 003°02'0 0.0
2017-Oct-30 14:59N 47°35' W 003°02'0 0.0
2017-Oct-30 14:29N 47°35' W 003°02'0 0.0
2017-Oct-30 13:29N 47°35' W 003°02'0 0.6
2017-Oct-30 13:00N 47°35' W 003°01'2 3.4
2017-Oct-30 12:30N 47°34' W 003°00'3 6.1
2017-Oct-30 12:00N 47°31' W 002°57'2 4.1
2017-Oct-30 11:30N 47°32' W 002°54'1 2.0
2017-Oct-30 10:59N 47°33' W 002°54'  
2017-Oct-27 15:00N 47°33' W 002°54'0 0.0
2017-Oct-27 14:30N 47°33' W 002°54'1 1.6
2017-Oct-27 14:00N 47°32' W 002°55'3 5.1
2017-Oct-27 13:30N 47°30' W 002°53'2 5.0
2017-Oct-27 13:00N 47°28' W 002°52'2 4.3
2017-Oct-27 12:30N 47°25' W 002°51'2 4.4
2017-Oct-27 12:00N 47°24' W 002°49'44 2.3
2017-Oct-26 16:23N 46°44' W 002°21'11 2.7
2017-Oct-26 12:26N 46°36' W 002°10'3 5.5
2017-Oct-26 11:49N 46°34' W 002°06'2 5.4
2017-Oct-26 11:30N 46°33' W 002°03'3 5.2
2017-Oct-26 11:00N 46°32' W 001°60'3 5.1
2017-Oct-26 10:30N 46°31' W 001°57'3 5.2
2017-Oct-26 10:00N 46°30' W 001°53'3 5.1
2017-Oct-26 09:30N 46°29' W 001°50'2 3.6
2017-Oct-26 09:00N 46°30' W 001°48'0 0.4
2017-Oct-26 08:29N 46°30' W 001°48'0 0.0
2017-Oct-26 07:59N 46°30' W 001°48'0 0.0
2017-Oct-26 07:29N 46°30' W 001°48'  

Dump ship's entire track history